sensor_id;sensor_type;location;lat;lon;timestamp;P1;durP1;ratioP1;P2;durP2;ratioP2
26820;SDS011;37186;51.394;5.454;2023-01-16T00:00:58;3.10;;;3.00;;
26820;SDS011;37186;51.394;5.454;2023-01-16T00:03:59;3.30;;;3.20;;
26820;SDS011;37186;51.394;5.454;2023-01-16T00:07:00;3.00;;;2.90;;
26820;SDS011;37186;51.394;5.454;2023-01-16T00:10:01;3.20;;;3.10;;
26820;SDS011;37186;51.394;5.454;2023-01-16T00:13:02;3.10;;;3.00;;
26820;SDS011;37186;51.394;5.454;2023-01-16T00:16:03;3.20;;;3.10;;
26820;SDS011;37186;51.394;5.454;2023-01-16T00:19:04;3.03;;;2.93;;
26820;SDS011;37186;51.394;5.454;2023-01-16T00:22:05;2.97;;;2.87;;
26820;SDS011;37186;51.394;5.454;2023-01-16T00:25:05;3.10;;;3.00;;
26820;SDS011;37186;51.394;5.454;2023-01-16T00:28:07;3.00;;;2.90;;
26820;SDS011;37186;51.394;5.454;2023-01-16T00:31:08;3.10;;;3.00;;
26820;SDS011;37186;51.394;5.454;2023-01-16T00:34:09;3.13;;;3.03;;
26820;SDS011;37186;51.394;5.454;2023-01-16T00:37:10;3.03;;;2.93;;
26820;SDS011;37186;51.394;5.454;2023-01-16T00:40:11;3.10;;;3.00;;
26820;SDS011;37186;51.394;5.454;2023-01-16T00:43:11;3.00;;;2.90;;
26820;SDS011;37186;51.394;5.454;2023-01-16T00:46:12;3.10;;;3.00;;
26820;SDS011;37186;51.394;5.454;2023-01-16T00:49:12;2.93;;;2.83;;
26820;SDS011;37186;51.394;5.454;2023-01-16T00:52:13;3.00;;;2.90;;
26820;SDS011;37186;51.394;5.454;2023-01-16T00:55:13;2.97;;;2.87;;
26820;SDS011;37186;51.394;5.454;2023-01-16T00:58:14;3.30;;;3.20;;
26820;SDS011;37186;51.394;5.454;2023-01-16T01:01:14;3.23;;;3.13;;
26820;SDS011;37186;51.394;5.454;2023-01-16T01:04:15;3.20;;;3.10;;
26820;SDS011;37186;51.394;5.454;2023-01-16T01:07:16;3.20;;;3.10;;
26820;SDS011;37186;51.394;5.454;2023-01-16T01:10:17;3.23;;;3.13;;
26820;SDS011;37186;51.394;5.454;2023-01-16T01:13:17;3.10;;;3.00;;
26820;SDS011;37186;51.394;5.454;2023-01-16T01:16:18;3.13;;;3.03;;
26820;SDS011;37186;51.394;5.454;2023-01-16T01:19:18;3.20;;;3.10;;
26820;SDS011;37186;51.394;5.454;2023-01-16T01:22:19;3.30;;;3.20;;
26820;SDS011;37186;51.394;5.454;2023-01-16T01:25:20;3.40;;;3.30;;
26820;SDS011;37186;51.394;5.454;2023-01-16T01:28:20;3.40;;;3.30;;
26820;SDS011;37186;51.394;5.454;2023-01-16T01:31:21;3.40;;;3.30;;
26820;SDS011;37186;51.394;5.454;2023-01-16T01:34:22;3.30;;;3.20;;
26820;SDS011;37186;51.394;5.454;2023-01-16T01:37:22;3.40;;;3.30;;
26820;SDS011;37186;51.394;5.454;2023-01-16T01:40:23;3.40;;;3.30;;
26820;SDS011;37186;51.394;5.454;2023-01-16T01:43:40;3.40;;;3.30;;
26820;SDS011;37186;51.394;5.454;2023-01-16T01:46:42;3.40;;;3.30;;
26820;SDS011;37186;51.394;5.454;2023-01-16T01:49:46;3.20;;;3.10;;
26820;SDS011;37186;51.394;5.454;2023-01-16T01:52:48;3.23;;;3.13;;
26820;SDS011;37186;51.394;5.454;2023-01-16T01:55:50;3.30;;;3.20;;
26820;SDS011;37186;51.394;5.454;2023-01-16T01:58:52;3.10;;;3.00;;
26820;SDS011;37186;51.394;5.454;2023-01-16T02:01:56;3.23;;;3.13;;
26820;SDS011;37186;51.394;5.454;2023-01-16T02:04:57;3.20;;;3.10;;
26820;SDS011;37186;51.394;5.454;2023-01-16T02:07:57;3.00;;;2.90;;
26820;SDS011;37186;51.394;5.454;2023-01-16T02:14:05;3.00;;;2.90;;
26820;SDS011;37186;51.394;5.454;2023-01-16T02:17:09;3.10;;;3.00;;
26820;SDS011;37186;51.394;5.454;2023-01-16T02:20:41;3.07;;;2.97;;
26820;SDS011;37186;51.394;5.454;2023-01-16T02:37:48;3.20;;;3.10;;
26820;SDS011;37186;51.394;5.454;2023-01-16T02:40:56;3.10;;;3.00;;
26820;SDS011;37186;51.394;5.454;2023-01-16T02:44:10;3.10;;;3.00;;
26820;SDS011;37186;51.394;5.454;2023-01-16T02:51:04;3.20;;;3.10;;
26820;SDS011;37186;51.394;5.454;2023-01-16T02:54:14;3.10;;;3.00;;
26820;SDS011;37186;51.394;5.454;2023-01-16T02:57:29;3.10;;;3.00;;
26820;SDS011;37186;51.394;5.454;2023-01-16T03:00:35;3.00;;;2.90;;
26820;SDS011;37186;51.394;5.454;2023-01-16T03:07:00;3.10;;;3.00;;
26820;SDS011;37186;51.394;5.454;2023-01-16T03:13:42;3.20;;;3.10;;
26820;SDS011;37186;51.394;5.454;2023-01-16T03:17:13;2.87;;;2.77;;
26820;SDS011;37186;51.394;5.454;2023-01-16T03:20:25;3.00;;;2.90;;
26820;SDS011;37186;51.394;5.454;2023-01-16T03:27:00;3.00;;;2.90;;
26820;SDS011;37186;51.394;5.454;2023-01-16T03:30:32;3.20;;;3.10;;
26820;SDS011;37186;51.394;5.454;2023-01-16T03:33:51;3.20;;;3.10;;
26820;SDS011;37186;51.394;5.454;2023-01-16T03:37:10;3.00;;;2.90;;
26820;SDS011;37186;51.394;5.454;2023-01-16T03:40:14;3.27;;;3.17;;
26820;SDS011;37186;51.394;5.454;2023-01-16T03:43:23;3.10;;;3.00;;
26820;SDS011;37186;51.394;5.454;2023-01-16T03:46:47;3.20;;;3.10;;
26820;SDS011;37186;51.394;5.454;2023-01-16T03:49:52;3.10;;;3.00;;
26820;SDS011;37186;51.394;5.454;2023-01-16T03:52:58;3.10;;;3.00;;
26820;SDS011;37186;51.394;5.454;2023-01-16T03:59:19;3.00;;;2.90;;
26820;SDS011;37186;51.394;5.454;2023-01-16T04:02:23;3.00;;;2.90;;
26820;SDS011;37186;51.394;5.454;2023-01-16T04:05:47;3.27;;;3.17;;
26820;SDS011;37186;51.394;5.454;2023-01-16T04:09:07;3.20;;;3.10;;
26820;SDS011;37186;51.394;5.454;2023-01-16T04:12:13;3.13;;;3.03;;
26820;SDS011;37186;51.394;5.454;2023-01-16T04:15:19;3.00;;;2.90;;
26820;SDS011;37186;51.394;5.454;2023-01-16T04:18:24;3.27;;;3.17;;
26820;SDS011;37186;51.394;5.454;2023-01-16T04:21:29;3.03;;;2.93;;
26820;SDS011;37186;51.394;5.454;2023-01-16T04:24:31;3.10;;;3.00;;
26820;SDS011;37186;51.394;5.454;2023-01-16T04:27:32;3.20;;;3.10;;
26820;SDS011;37186;51.394;5.454;2023-01-16T04:30:32;3.10;;;3.00;;
26820;SDS011;37186;51.394;5.454;2023-01-16T04:33:33;3.10;;;3.00;;
26820;SDS011;37186;51.394;5.454;2023-01-16T04:36:33;3.10;;;3.00;;
26820;SDS011;37186;51.394;5.454;2023-01-16T04:39:34;3.10;;;3.00;;
26820;SDS011;37186;51.394;5.454;2023-01-16T04:42:34;2.90;;;2.80;;
26820;SDS011;37186;51.394;5.454;2023-01-16T04:45:35;3.13;;;3.03;;
26820;SDS011;37186;51.394;5.454;2023-01-16T04:48:35;3.10;;;3.00;;
26820;SDS011;37186;51.394;5.454;2023-01-16T04:51:36;3.00;;;2.90;;
26820;SDS011;37186;51.394;5.454;2023-01-16T04:54:38;3.20;;;3.10;;
26820;SDS011;37186;51.394;5.454;2023-01-16T04:57:39;3.20;;;3.10;;
26820;SDS011;37186;51.394;5.454;2023-01-16T05:00:39;3.20;;;3.10;;
26820;SDS011;37186;51.394;5.454;2023-01-16T05:03:40;3.10;;;3.00;;
26820;SDS011;37186;51.394;5.454;2023-01-16T05:06:40;3.03;;;2.93;;
26820;SDS011;37186;51.394;5.454;2023-01-16T05:09:41;3.10;;;3.00;;
26820;SDS011;37186;51.394;5.454;2023-01-16T05:12:41;3.30;;;3.20;;
26820;SDS011;37186;51.394;5.454;2023-01-16T05:15:42;3.40;;;3.30;;
26820;SDS011;37186;51.394;5.454;2023-01-16T05:18:44;3.20;;;3.10;;
26820;SDS011;37186;51.394;5.454;2023-01-16T05:21:44;3.30;;;3.20;;
26820;SDS011;37186;51.394;5.454;2023-01-16T05:24:45;3.30;;;3.20;;
26820;SDS011;37186;51.394;5.454;2023-01-16T05:27:49;3.40;;;3.30;;
26820;SDS011;37186;51.394;5.454;2023-01-16T05:30:50;3.10;;;3.00;;
26820;SDS011;37186;51.394;5.454;2023-01-16T05:33:51;3.60;;;3.50;;
26820;SDS011;37186;51.394;5.454;2023-01-16T05:36:51;3.27;;;3.17;;
26820;SDS011;37186;51.394;5.454;2023-01-16T05:39:52;3.33;;;3.23;;
26820;SDS011;37186;51.394;5.454;2023-01-16T05:42:56;3.43;;;3.33;;
26820;SDS011;37186;51.394;5.454;2023-01-16T05:45:57;3.40;;;3.30;;
26820;SDS011;37186;51.394;5.454;2023-01-16T05:48:58;3.30;;;3.20;;
26820;SDS011;37186;51.394;5.454;2023-01-16T05:51:58;3.30;;;3.20;;
26820;SDS011;37186;51.394;5.454;2023-01-16T05:55:01;3.40;;;3.30;;
26820;SDS011;37186;51.394;5.454;2023-01-16T05:58:02;3.50;;;3.40;;
26820;SDS011;37186;51.394;5.454;2023-01-16T06:01:03;3.30;;;3.20;;
26820;SDS011;37186;51.394;5.454;2023-01-16T06:04:03;3.30;;;3.20;;
26820;SDS011;37186;51.394;5.454;2023-01-16T06:07:04;3.30;;;3.20;;
26820;SDS011;37186;51.394;5.454;2023-01-16T06:10:05;3.30;;;3.20;;
26820;SDS011;37186;51.394;5.454;2023-01-16T06:13:05;3.27;;;3.17;;
26820;SDS011;37186;51.394;5.454;2023-01-16T06:16:06;3.23;;;3.13;;
26820;SDS011;37186;51.394;5.454;2023-01-16T06:19:07;3.30;;;3.20;;
26820;SDS011;37186;51.394;5.454;2023-01-16T06:22:07;3.20;;;3.10;;
26820;SDS011;37186;51.394;5.454;2023-01-16T06:25:08;3.27;;;3.17;;
26820;SDS011;37186;51.394;5.454;2023-01-16T06:28:08;3.40;;;3.30;;
26820;SDS011;37186;51.394;5.454;2023-01-16T06:31:09;3.10;;;3.00;;
26820;SDS011;37186;51.394;5.454;2023-01-16T06:34:09;3.37;;;3.27;;
26820;SDS011;37186;51.394;5.454;2023-01-16T06:37:11;3.10;;;3.00;;
26820;SDS011;37186;51.394;5.454;2023-01-16T06:40:11;3.20;;;3.10;;
26820;SDS011;37186;51.394;5.454;2023-01-16T06:43:12;3.30;;;3.20;;
26820;SDS011;37186;51.394;5.454;2023-01-16T06:46:13;3.40;;;3.30;;
26820;SDS011;37186;51.394;5.454;2023-01-16T06:49:13;3.30;;;3.20;;
26820;SDS011;37186;51.394;5.454;2023-01-16T06:52:14;3.20;;;3.10;;
26820;SDS011;37186;51.394;5.454;2023-01-16T06:55:14;3.33;;;3.23;;
26820;SDS011;37186;51.394;5.454;2023-01-16T06:58:15;3.23;;;3.13;;
26820;SDS011;37186;51.394;5.454;2023-01-16T07:01:15;3.30;;;3.20;;
26820;SDS011;37186;51.394;5.454;2023-01-16T07:04:16;3.33;;;3.23;;
26820;SDS011;37186;51.394;5.454;2023-01-16T07:07:16;3.50;;;3.40;;
26820;SDS011;37186;51.394;5.454;2023-01-16T07:10:17;3.37;;;3.27;;
26820;SDS011;37186;51.394;5.454;2023-01-16T07:13:21;3.30;;;3.20;;
26820;SDS011;37186;51.394;5.454;2023-01-16T07:16:27;3.30;;;3.20;;
26820;SDS011;37186;51.394;5.454;2023-01-16T07:19:46;3.40;;;3.30;;
26820;SDS011;37186;51.394;5.454;2023-01-16T07:23:11;3.47;;;3.37;;
26820;SDS011;37186;51.394;5.454;2023-01-16T07:26:20;3.43;;;3.33;;
26820;SDS011;37186;51.394;5.454;2023-01-16T07:29:22;3.60;;;3.50;;
26820;SDS011;37186;51.394;5.454;2023-01-16T07:32:24;3.40;;;3.30;;
26820;SDS011;37186;51.394;5.454;2023-01-16T07:35:24;3.70;;;3.60;;
26820;SDS011;37186;51.394;5.454;2023-01-16T07:38:25;3.50;;;3.40;;
26820;SDS011;37186;51.394;5.454;2023-01-16T07:41:25;3.70;;;3.60;;
26820;SDS011;37186;51.394;5.454;2023-01-16T07:44:26;3.50;;;3.40;;
26820;SDS011;37186;51.394;5.454;2023-01-16T07:47:26;3.50;;;3.40;;
26820;SDS011;37186;51.394;5.454;2023-01-16T07:50:27;3.40;;;3.30;;
26820;SDS011;37186;51.394;5.454;2023-01-16T07:53:28;3.50;;;3.40;;
26820;SDS011;37186;51.394;5.454;2023-01-16T07:56:29;3.50;;;3.40;;
26820;SDS011;37186;51.394;5.454;2023-01-16T07:59:30;3.63;;;3.53;;
26820;SDS011;37186;51.394;5.454;2023-01-16T08:02:30;3.53;;;3.43;;
26820;SDS011;37186;51.394;5.454;2023-01-16T08:05:31;3.50;;;3.40;;
26820;SDS011;37186;51.394;5.454;2023-01-16T08:08:31;3.40;;;3.30;;
26820;SDS011;37186;51.394;5.454;2023-01-16T08:11:32;3.40;;;3.30;;
26820;SDS011;37186;51.394;5.454;2023-01-16T08:14:35;3.60;;;3.50;;
26820;SDS011;37186;51.394;5.454;2023-01-16T08:17:37;3.50;;;3.40;;
26820;SDS011;37186;51.394;5.454;2023-01-16T08:20:39;3.67;;;3.57;;
26820;SDS011;37186;51.394;5.454;2023-01-16T08:23:42;3.60;;;3.50;;
26820;SDS011;37186;51.394;5.454;2023-01-16T08:26:43;3.50;;;3.40;;
26820;SDS011;37186;51.394;5.454;2023-01-16T08:29:43;3.60;;;3.50;;
26820;SDS011;37186;51.394;5.454;2023-01-16T08:32:44;3.53;;;3.43;;
26820;SDS011;37186;51.394;5.454;2023-01-16T08:35:44;3.60;;;3.50;;
26820;SDS011;37186;51.394;5.454;2023-01-16T08:38:45;3.60;;;3.50;;
26820;SDS011;37186;51.394;5.454;2023-01-16T08:41:47;3.50;;;3.40;;
26820;SDS011;37186;51.394;5.454;2023-01-16T08:45:10;3.50;;;3.40;;
26820;SDS011;37186;51.394;5.454;2023-01-16T08:48:30;3.70;;;3.60;;
26820;SDS011;37186;51.394;5.454;2023-01-16T08:51:49;3.57;;;3.47;;
26820;SDS011;37186;51.394;5.454;2023-01-16T08:54:50;3.67;;;3.57;;
26820;SDS011;37186;51.394;5.454;2023-01-16T08:57:50;3.40;;;3.30;;
26820;SDS011;37186;51.394;5.454;2023-01-16T09:00:51;3.20;;;3.10;;
26820;SDS011;37186;51.394;5.454;2023-01-16T09:03:52;3.40;;;3.30;;
26820;SDS011;37186;51.394;5.454;2023-01-16T09:06:53;3.60;;;3.50;;
26820;SDS011;37186;51.394;5.454;2023-01-16T09:09:53;3.70;;;3.60;;
26820;SDS011;37186;51.394;5.454;2023-01-16T09:12:54;3.70;;;3.60;;
26820;SDS011;37186;51.394;5.454;2023-01-16T09:16:14;3.50;;;3.40;;
26820;SDS011;37186;51.394;5.454;2023-01-16T09:19:15;3.47;;;3.37;;
26820;SDS011;37186;51.394;5.454;2023-01-16T09:22:16;3.37;;;3.27;;
26820;SDS011;37186;51.394;5.454;2023-01-16T09:25:17;3.40;;;3.30;;
26820;SDS011;37186;51.394;5.454;2023-01-16T09:28:18;3.30;;;3.20;;
26820;SDS011;37186;51.394;5.454;2023-01-16T09:31:18;3.30;;;3.20;;
26820;SDS011;37186;51.394;5.454;2023-01-16T09:34:19;3.30;;;3.20;;
26820;SDS011;37186;51.394;5.454;2023-01-16T09:37:19;3.43;;;3.33;;
26820;SDS011;37186;51.394;5.454;2023-01-16T09:40:20;3.50;;;3.40;;
26820;SDS011;37186;51.394;5.454;2023-01-16T09:43:27;3.27;;;3.17;;
26820;SDS011;37186;51.394;5.454;2023-01-16T09:46:42;3.50;;;3.40;;
26820;SDS011;37186;51.394;5.454;2023-01-16T09:49:52;3.10;;;3.00;;
26820;SDS011;37186;51.394;5.454;2023-01-16T09:52:58;3.37;;;3.27;;
26820;SDS011;37186;51.394;5.454;2023-01-16T09:56:21;3.30;;;3.20;;
26820;SDS011;37186;51.394;5.454;2023-01-16T09:59:44;3.37;;;3.27;;
26820;SDS011;37186;51.394;5.454;2023-01-16T10:02:47;3.50;;;3.40;;
26820;SDS011;37186;51.394;5.454;2023-01-16T10:06:35;3.20;;;3.10;;
26820;SDS011;37186;51.394;5.454;2023-01-16T10:09:21;3.30;;;3.20;;
26820;SDS011;37186;51.394;5.454;2023-01-16T10:12:34;3.17;;;3.07;;
26820;SDS011;37186;51.394;5.454;2023-01-16T10:15:45;3.30;;;3.20;;
26820;SDS011;37186;51.394;5.454;2023-01-16T10:19:16;3.23;;;3.13;;
26820;SDS011;37186;51.394;5.454;2023-01-16T10:22:55;3.20;;;3.10;;
26820;SDS011;37186;51.394;5.454;2023-01-16T10:26:00;3.17;;;3.07;;
26820;SDS011;37186;51.394;5.454;2023-01-16T10:32:24;3.00;;;2.90;;
26820;SDS011;37186;51.394;5.454;2023-01-16T10:35:31;3.00;;;2.90;;
26820;SDS011;37186;51.394;5.454;2023-01-16T10:38:44;3.20;;;3.10;;
26820;SDS011;37186;51.394;5.454;2023-01-16T10:41:55;3.20;;;3.10;;
26820;SDS011;37186;51.394;5.454;2023-01-16T10:45:33;3.10;;;3.00;;
26820;SDS011;37186;51.394;5.454;2023-01-16T10:48:54;3.10;;;3.00;;
26820;SDS011;37186;51.394;5.454;2023-01-16T10:52:14;3.10;;;3.00;;
26820;SDS011;37186;51.394;5.454;2023-01-16T10:55:15;3.10;;;3.00;;
26820;SDS011;37186;51.394;5.454;2023-01-16T11:01:30;3.00;;;2.90;;
26820;SDS011;37186;51.394;5.454;2023-01-16T11:04:32;3.00;;;2.90;;
26820;SDS011;37186;51.394;5.454;2023-01-16T11:07:35;3.10;;;3.00;;
26820;SDS011;37186;51.394;5.454;2023-01-16T11:10:35;3.10;;;3.00;;
26820;SDS011;37186;51.394;5.454;2023-01-16T11:13:37;2.90;;;2.80;;
26820;SDS011;37186;51.394;5.454;2023-01-16T11:17:19;3.00;;;2.90;;
26820;SDS011;37186;51.394;5.454;2023-01-16T11:20:46;2.90;;;2.80;;
26820;SDS011;37186;51.394;5.454;2023-01-16T11:23:49;3.00;;;2.90;;
26820;SDS011;37186;51.394;5.454;2023-01-16T11:26:58;2.90;;;2.80;;
26820;SDS011;37186;51.394;5.454;2023-01-16T11:30:02;3.03;;;2.93;;
26820;SDS011;37186;51.394;5.454;2023-01-16T11:33:11;2.90;;;2.80;;
26820;SDS011;37186;51.394;5.454;2023-01-16T11:36:15;3.10;;;3.00;;
26820;SDS011;37186;51.394;5.454;2023-01-16T11:39:19;2.90;;;2.80;;
26820;SDS011;37186;51.394;5.454;2023-01-16T11:42:21;3.00;;;2.90;;
26820;SDS011;37186;51.394;5.454;2023-01-16T11:45:42;3.10;;;3.00;;
26820;SDS011;37186;51.394;5.454;2023-01-16T11:49:04;2.90;;;2.80;;
26820;SDS011;37186;51.394;5.454;2023-01-16T11:52:17;2.90;;;2.80;;
26820;SDS011;37186;51.394;5.454;2023-01-16T11:55:31;2.90;;;2.80;;
26820;SDS011;37186;51.394;5.454;2023-01-16T11:58:50;2.90;;;2.80;;
26820;SDS011;37186;51.394;5.454;2023-01-16T12:05:25;3.10;;;3.00;;
26820;SDS011;37186;51.394;5.454;2023-01-16T12:16:11;3.17;;;3.07;;
26820;SDS011;37186;51.394;5.454;2023-01-16T12:29:15;3.10;;;3.00;;
26820;SDS011;37186;51.394;5.454;2023-01-16T12:32:41;3.07;;;2.97;;
26820;SDS011;37186;51.394;5.454;2023-01-16T12:36:14;3.00;;;2.90;;
26820;SDS011;37186;51.394;5.454;2023-01-16T12:42:52;2.80;;;2.80;;
26820;SDS011;37186;51.394;5.454;2023-01-16T12:46:29;3.10;;;3.00;;
26820;SDS011;37186;51.394;5.454;2023-01-16T12:49:42;2.90;;;2.80;;
26820;SDS011;37186;51.394;5.454;2023-01-16T12:53:06;3.00;;;2.90;;
26820;SDS011;37186;51.394;5.454;2023-01-16T13:00:00;3.10;;;3.00;;
26820;SDS011;37186;51.394;5.454;2023-01-16T13:03:14;3.00;;;2.90;;
26820;SDS011;37186;51.394;5.454;2023-01-16T13:06:53;3.00;;;2.90;;
26820;SDS011;37186;51.394;5.454;2023-01-16T13:09:58;3.00;;;2.90;;
26820;SDS011;37186;51.394;5.454;2023-01-16T13:13:24;3.00;;;2.90;;
26820;SDS011;37186;51.394;5.454;2023-01-16T13:16:35;3.10;;;3.00;;
26820;SDS011;37186;51.394;5.454;2023-01-16T13:19:40;3.07;;;2.97;;
26820;SDS011;37186;51.394;5.454;2023-01-16T13:22:55;3.20;;;3.10;;
26820;SDS011;37186;51.394;5.454;2023-01-16T13:26:02;3.10;;;3.00;;
26820;SDS011;37186;51.394;5.454;2023-01-16T13:29:11;3.10;;;3.00;;
26820;SDS011;37186;51.394;5.454;2023-01-16T13:39:02;3.10;;;3.00;;
26820;SDS011;37186;51.394;5.454;2023-01-16T13:42:23;3.10;;;3.00;;
26820;SDS011;37186;51.394;5.454;2023-01-16T13:45:31;3.10;;;3.00;;
26820;SDS011;37186;51.394;5.454;2023-01-16T13:48:54;3.07;;;2.97;;
26820;SDS011;37186;51.394;5.454;2023-01-16T13:52:01;2.90;;;2.80;;
26820;SDS011;37186;51.394;5.454;2023-01-16T13:55:03;3.10;;;3.00;;
26820;SDS011;37186;51.394;5.454;2023-01-16T14:04:31;3.00;;;2.90;;
26820;SDS011;37186;51.394;5.454;2023-01-16T14:07:45;3.20;;;3.10;;
26820;SDS011;37186;51.394;5.454;2023-01-16T14:14:16;3.13;;;3.03;;
26820;SDS011;37186;51.394;5.454;2023-01-16T14:21:01;3.17;;;3.07;;
26820;SDS011;37186;51.394;5.454;2023-01-16T14:24:04;3.00;;;2.90;;
26820;SDS011;37186;51.394;5.454;2023-01-16T14:27:13;3.20;;;3.10;;
26820;SDS011;37186;51.394;5.454;2023-01-16T14:30:18;3.20;;;3.10;;
26820;SDS011;37186;51.394;5.454;2023-01-16T14:33:39;3.00;;;2.90;;
26820;SDS011;37186;51.394;5.454;2023-01-16T14:36:47;3.17;;;3.07;;
26820;SDS011;37186;51.394;5.454;2023-01-16T14:39:57;3.10;;;3.00;;
26820;SDS011;37186;51.394;5.454;2023-01-16T14:43:12;3.13;;;3.03;;
26820;SDS011;37186;51.394;5.454;2023-01-16T14:46:49;3.10;;;3.00;;
26820;SDS011;37186;51.394;5.454;2023-01-16T14:50:11;3.17;;;3.07;;
26820;SDS011;37186;51.394;5.454;2023-01-16T14:53:32;3.20;;;3.10;;
26820;SDS011;37186;51.394;5.454;2023-01-16T14:56:53;3.00;;;2.90;;
26820;SDS011;37186;51.394;5.454;2023-01-16T15:00:16;3.17;;;3.07;;
26820;SDS011;37186;51.394;5.454;2023-01-16T15:03:21;3.30;;;3.20;;
26820;SDS011;37186;51.394;5.454;2023-01-16T15:06:27;3.20;;;3.10;;
26820;SDS011;37186;51.394;5.454;2023-01-16T15:09:36;2.90;;;2.80;;
26820;SDS011;37186;51.394;5.454;2023-01-16T15:12:41;3.20;;;3.10;;
26820;SDS011;37186;51.394;5.454;2023-01-16T15:15:46;3.10;;;3.00;;
26820;SDS011;37186;51.394;5.454;2023-01-16T15:18:50;3.23;;;3.13;;
26820;SDS011;37186;51.394;5.454;2023-01-16T15:22:14;3.17;;;3.07;;
26820;SDS011;37186;51.394;5.454;2023-01-16T15:25:35;3.27;;;3.17;;
26820;SDS011;37186;51.394;5.454;2023-01-16T15:32:07;3.30;;;3.20;;
26820;SDS011;37186;51.394;5.454;2023-01-16T15:35:17;3.20;;;3.10;;
26820;SDS011;37186;51.394;5.454;2023-01-16T15:38:20;3.30;;;3.20;;
26820;SDS011;37186;51.394;5.454;2023-01-16T15:41:29;3.40;;;3.30;;
26820;SDS011;37186;51.394;5.454;2023-01-16T15:44:50;3.30;;;3.20;;
26820;SDS011;37186;51.394;5.454;2023-01-16T15:51:11;3.30;;;3.20;;
26820;SDS011;37186;51.394;5.454;2023-01-16T15:54:15;3.30;;;3.20;;
26820;SDS011;37186;51.394;5.454;2023-01-16T15:57:16;3.10;;;3.00;;
26820;SDS011;37186;51.394;5.454;2023-01-16T16:00:22;3.10;;;3.00;;
26820;SDS011;37186;51.394;5.454;2023-01-16T16:03:41;3.27;;;3.17;;
26820;SDS011;37186;51.394;5.454;2023-01-16T16:06:44;3.20;;;3.10;;
26820;SDS011;37186;51.394;5.454;2023-01-16T16:09:46;2.80;;;2.70;;
26820;SDS011;37186;51.394;5.454;2023-01-16T16:12:49;2.90;;;2.80;;
26820;SDS011;37186;51.394;5.454;2023-01-16T16:15:53;3.20;;;3.10;;
26820;SDS011;37186;51.394;5.454;2023-01-16T16:19:29;3.10;;;3.00;;
26820;SDS011;37186;51.394;5.454;2023-01-16T16:22:33;3.07;;;2.97;;
26820;SDS011;37186;51.394;5.454;2023-01-16T16:25:59;3.10;;;3.00;;
26820;SDS011;37186;51.394;5.454;2023-01-16T16:29:04;3.10;;;3.00;;
26820;SDS011;37186;51.394;5.454;2023-01-16T16:32:06;3.00;;;2.90;;
26820;SDS011;37186;51.394;5.454;2023-01-16T16:35:16;3.10;;;3.00;;
26820;SDS011;37186;51.394;5.454;2023-01-16T16:41:43;3.20;;;3.10;;
26820;SDS011;37186;51.394;5.454;2023-01-16T16:48:23;3.10;;;3.00;;
26820;SDS011;37186;51.394;5.454;2023-01-16T16:51:28;3.10;;;3.00;;
26820;SDS011;37186;51.394;5.454;2023-01-16T16:54:30;2.90;;;2.80;;
26820;SDS011;37186;51.394;5.454;2023-01-16T16:57:42;3.20;;;3.10;;
26820;SDS011;37186;51.394;5.454;2023-01-16T17:00:43;3.13;;;3.03;;
26820;SDS011;37186;51.394;5.454;2023-01-16T17:03:46;3.00;;;2.90;;
26820;SDS011;37186;51.394;5.454;2023-01-16T17:06:49;3.10;;;3.00;;
26820;SDS011;37186;51.394;5.454;2023-01-16T17:09:52;3.03;;;2.93;;
26820;SDS011;37186;51.394;5.454;2023-01-16T17:12:52;2.97;;;2.87;;
26820;SDS011;37186;51.394;5.454;2023-01-16T17:15:55;3.00;;;2.90;;
26820;SDS011;37186;51.394;5.454;2023-01-16T17:19:06;3.10;;;3.00;;
26820;SDS011;37186;51.394;5.454;2023-01-16T17:22:21;2.93;;;2.83;;
26820;SDS011;37186;51.394;5.454;2023-01-16T17:25:22;2.90;;;2.80;;
26820;SDS011;37186;51.394;5.454;2023-01-16T17:28:23;3.10;;;3.00;;
26820;SDS011;37186;51.394;5.454;2023-01-16T17:31:26;3.10;;;3.00;;
26820;SDS011;37186;51.394;5.454;2023-01-16T17:34:26;3.10;;;3.00;;
26820;SDS011;37186;51.394;5.454;2023-01-16T17:37:27;3.10;;;3.00;;
26820;SDS011;37186;51.394;5.454;2023-01-16T17:40:27;3.10;;;3.00;;
26820;SDS011;37186;51.394;5.454;2023-01-16T17:43:28;3.10;;;3.00;;
26820;SDS011;37186;51.394;5.454;2023-01-16T17:46:47;3.00;;;2.90;;
26820;SDS011;37186;51.394;5.454;2023-01-16T17:49:47;3.20;;;3.10;;
26820;SDS011;37186;51.394;5.454;2023-01-16T17:53:14;3.10;;;3.00;;
26820;SDS011;37186;51.394;5.454;2023-01-16T17:56:16;3.07;;;2.97;;
26820;SDS011;37186;51.394;5.454;2023-01-16T17:59:18;3.23;;;3.13;;
26820;SDS011;37186;51.394;5.454;2023-01-16T18:02:19;3.03;;;2.93;;
26820;SDS011;37186;51.394;5.454;2023-01-16T18:05:20;3.10;;;3.00;;
26820;SDS011;37186;51.394;5.454;2023-01-16T18:08:20;3.20;;;3.10;;
26820;SDS011;37186;51.394;5.454;2023-01-16T18:11:21;3.10;;;3.00;;
26820;SDS011;37186;51.394;5.454;2023-01-16T18:14:41;3.10;;;3.00;;
26820;SDS011;37186;51.394;5.454;2023-01-16T18:18:00;3.13;;;3.03;;
26820;SDS011;37186;51.394;5.454;2023-01-16T18:21:00;3.30;;;3.20;;
26820;SDS011;37186;51.394;5.454;2023-01-16T18:24:26;3.20;;;3.10;;
26820;SDS011;37186;51.394;5.454;2023-01-16T18:27:28;3.40;;;3.30;;
26820;SDS011;37186;51.394;5.454;2023-01-16T18:30:28;3.33;;;3.23;;
26820;SDS011;37186;51.394;5.454;2023-01-16T18:33:29;3.17;;;3.07;;
26820;SDS011;37186;51.394;5.454;2023-01-16T18:36:29;3.10;;;3.00;;
26820;SDS011;37186;51.394;5.454;2023-01-16T18:39:30;2.90;;;2.80;;
26820;SDS011;37186;51.394;5.454;2023-01-16T18:42:49;3.00;;;2.90;;
26820;SDS011;37186;51.394;5.454;2023-01-16T18:46:14;3.20;;;3.10;;
26820;SDS011;37186;51.394;5.454;2023-01-16T18:49:34;3.20;;;3.10;;
26820;SDS011;37186;51.394;5.454;2023-01-16T18:52:54;3.10;;;3.00;;
26820;SDS011;37186;51.394;5.454;2023-01-16T18:56:21;2.93;;;2.83;;
26820;SDS011;37186;51.394;5.454;2023-01-16T18:59:41;3.10;;;3.00;;
26820;SDS011;37186;51.394;5.454;2023-01-16T19:03:00;2.80;;;2.70;;
26820;SDS011;37186;51.394;5.454;2023-01-16T19:06:01;3.20;;;3.10;;
26820;SDS011;37186;51.394;5.454;2023-01-16T19:09:02;3.20;;;3.10;;
26820;SDS011;37186;51.394;5.454;2023-01-16T19:12:05;3.10;;;3.00;;
26820;SDS011;37186;51.394;5.454;2023-01-16T19:15:07;3.30;;;3.20;;
26820;SDS011;37186;51.394;5.454;2023-01-16T19:18:08;3.30;;;3.20;;
26820;SDS011;37186;51.394;5.454;2023-01-16T19:21:09;3.20;;;3.10;;
26820;SDS011;37186;51.394;5.454;2023-01-16T19:24:10;3.17;;;3.07;;
26820;SDS011;37186;51.394;5.454;2023-01-16T19:27:13;3.03;;;2.93;;
26820;SDS011;37186;51.394;5.454;2023-01-16T19:30:13;3.20;;;3.10;;
26820;SDS011;37186;51.394;5.454;2023-01-16T19:33:14;3.30;;;3.20;;
26820;SDS011;37186;51.394;5.454;2023-01-16T19:36:15;2.93;;;2.83;;
26820;SDS011;37186;51.394;5.454;2023-01-16T19:39:16;3.30;;;3.20;;
26820;SDS011;37186;51.394;5.454;2023-01-16T19:42:16;3.20;;;3.10;;
26820;SDS011;37186;51.394;5.454;2023-01-16T19:45:35;3.10;;;3.00;;
26820;SDS011;37186;51.394;5.454;2023-01-16T19:48:55;3.20;;;3.10;;
26820;SDS011;37186;51.394;5.454;2023-01-16T19:51:59;3.37;;;3.27;;
26820;SDS011;37186;51.394;5.454;2023-01-16T19:55:00;3.33;;;3.23;;
26820;SDS011;37186;51.394;5.454;2023-01-16T19:58:01;3.03;;;2.93;;
26820;SDS011;37186;51.394;5.454;2023-01-16T20:01:08;3.30;;;3.20;;
26820;SDS011;37186;51.394;5.454;2023-01-16T20:04:12;3.20;;;3.10;;
26820;SDS011;37186;51.394;5.454;2023-01-16T20:07:13;3.10;;;3.00;;
26820;SDS011;37186;51.394;5.454;2023-01-16T20:10:14;3.40;;;3.30;;
26820;SDS011;37186;51.394;5.454;2023-01-16T20:13:15;3.23;;;3.13;;
26820;SDS011;37186;51.394;5.454;2023-01-16T20:16:15;3.40;;;3.30;;
26820;SDS011;37186;51.394;5.454;2023-01-16T20:19:16;3.17;;;3.07;;
26820;SDS011;37186;51.394;5.454;2023-01-16T20:22:16;3.13;;;3.03;;
26820;SDS011;37186;51.394;5.454;2023-01-16T20:25:17;3.23;;;3.13;;
26820;SDS011;37186;51.394;5.454;2023-01-16T20:28:18;3.53;;;3.43;;